Time;durP1;ratioP1;P1;durP2;ratioP2;P2;SDS_P1;SDS_P2;PMS_P1;PMS_P2;Temp;Humidity;BMP_temperature;BMP_pressure;BME280_temperature;BME280_humidity;BME280_pressure;Samples;Min_cycle;Max_cycle;Signal;HPM_P1;HPM_P2
2022/04/18 00:02:22;;;;;;;3.67;3.17;;;19.60;40.70;;;;;;5056177;28;20191;-69
2022/04/18 00:04:49;;;;;;;3.40;3.10;;;19.50;41.30;;;;;;5055562;28;20274;-69
2022/04/18 00:07:16;;;;;;;3.40;3.10;;;19.50;40.60;;;;;;5055352;28;20214;-69
2022/04/18 00:09:43;;;;;;;3.33;3.03;;;19.50;40.80;;;;;;5037633;28;20278;-69
2022/04/18 00:12:10;;;;;;;3.20;3.00;;;19.40;40.50;;;;;;5037806;28;20294;-69
2022/04/18 00:14:37;;;;;;;3.30;3.00;;;19.50;40.90;;;;;;5055589;28;20565;-69
2022/04/18 00:17:09;;;;;;;3.17;2.97;;;19.40;40.70;;;;;;5055292;28;20207;-68
2022/04/18 00:19:36;;;;;;;3.03;2.67;;;19.40;40.70;;;;;;5038389;28;20199;-69
2022/04/18 00:22:03;;;;;;;3.42;3.13;;;19.30;40.50;;;;;;5037878;28;20199;-69
2022/04/18 00:24:31;;;;;;;3.20;3.00;;;19.30;40.70;;;;;;5055705;28;20188;-70
2022/04/18 00:26:58;;;;;;;3.20;3.00;;;19.30;40.50;;;;;;5037971;28;20234;-69
2022/04/18 00:29:26;;;;;;;3.40;3.10;;;19.30;40.70;;;;;;5055632;28;20215;-68
2022/04/18 00:31:53;;;;;;;3.08;2.78;;;19.30;41.20;;;;;;5037711;28;20265;-69
2022/04/18 00:34:22;;;;;;;3.33;3.08;;;19.30;40.80;;;;;;5037690;28;20191;-69
2022/04/18 00:36:49;;;;;;;2.83;2.63;;;19.20;40.60;;;;;;5037695;28;20212;-69
2022/04/18 00:39:16;;;;;;;3.17;2.92;;;19.30;40.70;;;;;;5055854;28;20277;-68
2022/04/18 00:41:43;;;;;;;3.13;2.92;;;19.20;40.70;;;;;;5038034;28;20665;-69
2022/04/18 00:44:10;;;;;;;2.88;2.67;;;19.20;40.60;;;;;;5054332;28;20195;-69
2022/04/18 00:46:37;;;;;;;3.33;3.00;;;19.10;40.60;;;;;;5055833;28;20250;-69
2022/04/18 00:49:04;;;;;;;2.90;2.65;;;19.10;40.80;;;;;;5054517;28;20261;-69
2022/04/18 00:51:34;;;;;;;3.17;2.97;;;19.10;40.50;;;;;;5037528;28;20203;-69
2022/04/18 00:54:00;;;;;;;4.43;2.90;;;19.10;40.70;;;;;;5037227;28;20199;-69
2022/04/18 00:56:28;;;;;;;3.15;2.85;;;19.10;40.50;;;;;;5037287;28;20218;-69
2022/04/18 00:58:55;;;;;;;3.28;2.78;;;19.10;40.50;;;;;;5037262;28;20198;-69
2022/04/18 01:01:23;;;;;;;3.20;2.90;;;19.10;40.50;;;;;;5054850;28;20194;-68
2022/04/18 01:03:54;;;;;;;2.97;2.70;;;19.10;40.60;;;;;;5037404;28;20541;-69
2022/04/18 01:06:21;;;;;;;2.70;2.50;;;19.00;40.50;;;;;;5036845;28;20274;-68
2022/04/18 01:08:50;;;;;;;2.83;2.63;;;19.00;40.70;;;;;;5037296;28;20249;-69
2022/04/18 01:11:18;;;;;;;2.90;2.70;;;19.00;40.60;;;;;;5036881;28;20197;-68
2022/04/18 01:14:08;;;;;;;3.35;2.80;;;19.00;40.50;;;;;;5049052;28;20207;-69
2022/04/18 01:16:50;;;;;;;2.70;2.50;;;19.00;40.50;;;;;;5054920;28;20611;-68
2022/04/18 01:19:24;;;;;;;2.90;2.70;;;18.90;40.40;;;;;;5037386;28;20188;-69
2022/04/18 01:22:15;;;;;;;3.00;2.70;;;18.90;40.50;;;;;;5017503;28;20310;-69
2022/04/18 01:30:35;;;;;;;3.03;2.83;;;18.90;40.60;;;;;;5036248;28;20217;-69
2022/04/18 01:33:03;;;;;;;2.88;2.67;;;18.90;40.70;;;;;;5036614;28;20199;-69
2022/04/18 01:35:30;;;;;;;3.08;2.88;;;18.80;40.50;;;;;;5052532;28;20207;-68
2022/04/18 01:37:58;;;;;;;2.67;2.47;;;18.80;40.70;;;;;;5052437;28;20226;-69
2022/04/18 01:40:26;;;;;;;2.63;2.42;;;18.80;40.60;;;;;;5035796;28;20638;-69
2022/04/18 01:42:53;;;;;;;2.80;2.60;;;18.80;40.60;;;;;;5035744;28;20202;-69
2022/04/18 01:45:20;;;;;;;2.70;2.50;;;18.70;40.60;;;;;;5052149;28;20732;-69
2022/04/18 01:48:02;;;;;;;2.67;2.47;;;18.80;40.70;;;;;;5052099;28;20260;-69
2022/04/18 01:50:29;;;;;;;2.58;2.38;;;18.80;40.60;;;;;;5052725;28;20226;-69
2022/04/18 01:52:58;;;;;;;2.70;2.50;;;18.70;40.40;;;;;;5035401;28;20195;-69
2022/04/18 01:55:26;;;;;;;2.40;2.20;;;18.70;40.50;;;;;;5035754;28;20218;-69
2022/04/18 01:57:57;;;;;;;2.60;2.40;;;18.70;40.50;;;;;;5052730;28;20219;-69
2022/04/18 02:00:24;;;;;;;2.40;2.20;;;18.70;41.30;;;;;;5036270;28;20249;-69
2022/04/18 02:02:53;;;;;;;2.45;2.35;;;18.70;40.70;;;;;;5044501;28;20206;-69
2022/04/18 02:05:20;;;;;;;2.50;2.30;;;18.60;40.50;;;;;;5059535;28;20195;-69
2022/04/18 02:07:48;;;;;;;2.60;2.40;;;18.60;40.50;;;;;;5060646;28;20226;-68
2022/04/18 02:10:16;;;;;;;2.50;2.30;;;18.60;40.60;;;;;;5052366;28;20249;-69
2022/04/18 02:12:43;;;;;;;2.95;2.70;;;18.60;40.70;;;;;;5035647;28;20638;-68
2022/04/18 02:15:11;;;;;;;2.42;2.22;;;18.60;40.60;;;;;;5035486;28;20245;-69
2022/04/18 02:17:51;;;;;;;3.00;2.80;;;18.60;40.60;;;;;;5146011;22;20249;-69
2022/04/18 02:20:18;;;;;;;2.75;2.50;;;18.60;40.60;;;;;;5035678;28;20230;-69
2022/04/18 02:22:45;;;;;;;2.63;2.42;;;18.50;40.50;;;;;;5035725;28;20248;-68
2022/04/18 02:25:12;;;;;;;2.70;2.50;;;18.50;40.60;;;;;;5035340;28;20226;-69
2022/04/18 02:27:40;;;;;;;2.60;2.40;;;18.50;40.60;;;;;;5035204;28;20681;-69
2022/04/18 02:30:09;;;;;;;2.50;2.33;;;18.50;41.30;;;;;;5053033;28;20278;-68
2022/04/18 02:32:49;;;;;;;2.90;2.58;;;18.50;40.80;;;;;;5035073;28;20681;-69
2022/04/18 02:35:18;;;;;;;2.60;2.40;;;18.50;40.70;;;;;;5051850;28;20280;-69
2022/04/18 02:37:45;;;;;;;2.80;2.60;;;18.50;40.60;;;;;;5035136;28;20217;-68
2022/04/18 02:40:15;;;;;;;2.88;2.67;;;18.50;40.60;;;;;;5035862;28;20253;-69
2022/04/18 02:42:44;;;;;;;2.45;2.25;;;18.40;40.70;;;;;;5051717;28;20579;-69
2022/04/18 02:45:13;;;;;;;2.72;2.53;;;18.40;40.60;;;;;;5034869;28;20221;-69
2022/04/18 02:47:59;;;;;;;2.60;2.40;;;18.40;40.70;;;;;;5053077;28;20311;-69
2022/04/18 02:50:26;;;;;;;2.50;2.30;;;18.40;40.80;;;;;;5051801;28;20673;-69
2022/04/18 02:52:54;;;;;;;2.60;2.40;;;18.40;40.70;;;;;;5035111;28;20203;-69
2022/04/18 02:55:31;;;;;;;2.67;2.47;;;18.40;40.80;;;;;;5035261;28;20660;-69
2022/04/18 02:58:01;;;;;;;2.53;2.33;;;18.40;40.70;;;;;;5035062;28;20306;-69
2022/04/18 03:00:32;;;;;;;2.25;2.05;;;18.30;40.70;;;;;;5035430;28;20257;-69
2022/04/18 03:02:59;;;;;;;2.97;2.72;;;18.40;40.70;;;;;;5052358;28;20188;-70
2022/04/18 03:05:26;;;;;;;2.80;2.60;;;18.30;40.60;;;;;;5053347;28;20202;-69
2022/04/18 03:07:54;;;;;;;2.75;2.50;;;18.30;40.70;;;;;;5055658;28;20219;-69
2022/04/18 03:11:02;;;;;;;2.50;2.30;;;18.30;40.70;;;;;;5039221;28;20712;-69
2022/04/18 03:13:12;;;;;;;2.10;2.00;;;18.30;40.70;;;;;;5038882;28;20283;-69
2022/04/18 03:15:39;;;;;;;2.60;2.40;;;18.20;40.50;;;;;;5038467;28;20199;-69
2022/04/18 03:18:06;;;;;;;2.65;2.45;;;18.30;40.80;;;;;;5054942;28;20229;-69
2022/04/18 03:20:33;;;;;;;2.55;2.35;;;18.20;40.70;;;;;;5039134;28;20199;-69
2022/04/18 03:23:00;;;;;;;2.40;2.20;;;18.20;40.80;;;;;;5055221;28;20195;-69
2022/04/18 03:25:47;;;;;;;2.75;2.55;;;18.30;40.90;;;;;;5055214;28;20202;-68
2022/04/18 03:28:15;;;;;;;2.50;2.30;;;18.20;40.80;;;;;;5054812;28;20689;-69
2022/04/18 03:30:44;;;;;;;2.60;2.40;;;18.20;40.80;;;;;;5038275;28;20606;-69
2022/04/18 03:33:11;;;;;;;2.55;2.35;;;18.20;40.90;;;;;;5038831;28;20319;-69
2022/04/18 03:39:50;;;;;;;2.65;2.42;;;18.20;40.90;;;;;;5038190;28;20287;-69
2022/04/18 03:41:11;;;;;;;2.38;2.17;;;18.20;40.90;;;;;;5038691;28;20327;-69
2022/04/18 03:43:40;;;;;;;2.45;2.25;;;18.20;40.80;;;;;;5038249;28;20661;-69
2022/04/18 03:46:07;;;;;;;2.58;2.38;;;18.20;40.90;;;;;;5038260;28;20668;-69
2022/04/18 03:48:34;;;;;;;2.50;2.30;;;18.20;40.80;;;;;;5038074;28;20218;-69
2022/04/18 03:51:01;;;;;;;2.40;2.30;;;18.20;40.70;;;;;;5054838;28;20205;-69
2022/04/18 03:53:30;;;;;;;2.42;2.15;;;18.20;40.60;;;;;;5038401;28;20214;-69
2022/04/18 03:55:57;;;;;;;2.35;2.20;;;18.20;41.40;;;;;;5038817;28;20198;-68
2022/04/18 03:58:45;;;;;;;2.70;2.50;;;18.20;40.80;;;;;;5055887;28;20569;-69
2022/04/18 04:01:14;;;;;;;2.42;2.22;;;18.20;40.70;;;;;;5038741;28;20206;-69
2022/04/18 04:03:41;;;;;;;2.50;2.30;;;18.20;40.70;;;;;;5055089;28;20207;-68
2022/04/18 04:06:09;;;;;;;2.83;2.63;;;18.20;41.20;;;;;;5037963;28;20199;-69
2022/04/18 04:08:37;;;;;;;2.25;2.15;;;18.20;40.50;;;;;;5055185;28;20195;-69
2022/04/18 04:11:07;;;;;;;2.95;2.45;;;18.20;40.50;;;;;;5038563;28;20190;-69
2022/04/18 04:13:37;;;;;;;3.00;2.55;;;18.30;40.60;;;;;;5054686;28;20264;-68
2022/04/18 04:16:14;;;;;;;2.42;2.22;;;18.20;40.30;;;;;;5054439;28;20299;-68
2022/04/18 04:18:41;;;;;;;2.28;2.17;;;18.30;40.50;;;;;;5054416;28;20269;-68
2022/04/18 04:21:11;;;;;;;2.63;2.30;;;18.30;40.50;;;;;;5054457;28;20245;-68
2022/04/18 04:23:38;;;;;;;2.30;2.10;;;18.20;40.30;;;;;;5054387;28;20196;-68
2022/04/18 04:26:18;;;;;;;2.20;2.10;;;18.30;40.30;;;;;;5054569;28;20724;-68
2022/04/18 04:28:50;;;;;;;2.20;2.03;;;18.30;40.30;;;;;;5037815;28;20201;-68
2022/04/18 04:31:27;;;;;;;2.55;2.35;;;18.30;40.40;;;;;;5037808;28;20273;-68
2022/04/18 04:33:55;;;;;;;2.35;2.20;;;18.30;40.20;;;;;;5037829;28;20200;-68
2022/04/18 04:36:23;;;;;;;2.47;2.28;;;18.40;40.30;;;;;;5038060;28;20215;-68
2022/04/18 04:38:50;;;;;;;2.58;2.38;;;18.40;40.30;;;;;;5037861;28;20269;-68
2022/04/18 04:41:26;;;;;;;2.47;2.20;;;18.40;40.00;;;;;;5038464;28;20206;-69
2022/04/18 04:43:57;;;;;;;2.55;2.38;;;18.40;40.00;;;;;;5056734;28;20278;-70
2022/04/18 04:46:38;;;;;;;2.33;2.20;;;18.40;40.00;;;;;;5038811;28;20744;-69
2022/04/18 04:49:14;;;;;;;2.30;2.10;;;18.50;40.00;;;;;;5056113;28;20330;-69
2022/04/18 04:51:50;;;;;;;2.20;2.10;;;18.50;40.10;;;;;;5054520;28;20199;-69
2022/04/18 04:54:19;;;;;;;2.40;2.30;;;18.50;39.80;;;;;;5038016;28;20282;-69
2022/04/18 04:56:46;;;;;;;2.20;2.10;;;18.50;39.80;;;;;;5037390;28;20394;-68
2022/04/18 04:59:13;;;;;;;2.40;2.20;;;18.60;40.00;;;;;;5037430;28;20286;-69
2022/04/18 05:01:41;;;;;;;2.10;2.00;;;18.70;39.80;;;;;;5037190;28;20215;-69
2022/04/18 05:04:11;;;;;;;2.30;2.10;;;18.70;39.50;;;;;;5036968;28;20234;-69
2022/04/18 05:06:41;;;;;;;2.08;1.98;;;18.70;39.50;;;;;;5037146;28;20273;-69
2022/04/18 05:09:14;;;;;;;2.25;2.15;;;18.80;39.50;;;;;;5036799;28;20578;-69
2022/04/18 05:11:41;;;;;;;2.20;2.00;;;18.80;39.40;;;;;;5036726;28;20199;-69
2022/04/18 05:14:12;;;;;;;2.20;2.10;;;18.80;39.40;;;;;;5053675;28;20669;-69
2022/04/18 05:16:53;;;;;;;2.25;2.15;;;18.90;39.40;;;;;;5036636;28;20302;-69
2022/04/18 05:19:35;;;;;;;2.45;2.25;;;18.90;39.00;;;;;;5036994;28;20199;-69
2022/04/18 05:22:28;;;;;;;2.58;2.38;;;19.00;39.00;;;;;;5052561;28;20192;-69
2022/04/18 05:24:56;;;;;;;2.30;2.20;;;19.00;39.20;;;;;;5036694;28;20222;-69
2022/04/18 05:27:35;;;;;;;2.35;2.22;;;19.00;38.80;;;;;;5036721;28;20867;-69
2022/04/18 05:30:07;;;;;;;2.50;2.30;;;19.10;39.10;;;;;;5036968;28;20191;-69
2022/04/18 05:32:36;;;;;;;2.60;2.40;;;19.10;39.00;;;;;;5037090;28;20216;-69
2022/04/18 05:35:08;;;;;;;2.42;2.22;;;19.10;38.70;;;;;;5053568;28;20199;-70
2022/04/18 05:37:35;;;;;;;2.75;2.25;;;19.20;38.70;;;;;;5053461;28;20222;-69
2022/04/18 05:40:07;;;;;;;2.20;2.10;;;19.20;38.20;;;;;;5036766;28;20202;-69
2022/04/18 05:42:36;;;;;;;2.28;2.08;;;19.30;38.00;;;;;;5036735;28;20196;-69
2022/04/18 05:45:09;;;;;;;2.35;2.15;;;19.50;37.70;;;;;;5036903;28;20571;-69
2022/04/18 05:47:40;;;;;;;2.58;2.38;;;19.70;37.50;;;;;;5036045;28;20242;-69
2022/04/18 05:50:08;;;;;;;2.33;2.00;;;19.90;37.20;;;;;;5036416;28;20196;-69
2022/04/18 05:52:41;;;;;;;2.25;2.00;;;20.10;36.80;;;;;;5037242;28;20219;-69
2022/04/18 05:55:28;;;;;;;2.08;1.98;;;20.30;36.90;;;;;;5054210;28;20218;-69
2022/04/18 05:57:55;;;;;;;2.33;2.20;;;20.50;36.20;;;;;;5036489;28;20719;-69
2022/04/18 06:00:22;;;;;;;2.20;2.10;;;20.70;36.20;;;;;;5037854;28;20192;-69
2022/04/18 06:02:57;;;;;;;2.38;2.22;;;20.90;35.90;;;;;;5037073;28;20202;-70
2022/04/18 06:05:25;;;;;;;2.20;2.10;;;21.00;35.40;;;;;;5036494;28;20191;-69
2022/04/18 06:08:03;;;;;;;2.33;2.13;;;21.20;35.50;;;;;;5037069;28;20227;-69
2022/04/18 06:10:40;;;;;;;2.38;2.20;;;21.30;35.50;;;;;;5054610;28;20184;-69
2022/04/18 06:13:27;;;;;;;2.65;2.42;;;21.40;35.20;;;;;;5032957;28;20199;-69
2022/04/18 06:15:54;;;;;;;2.22;2.13;;;21.60;35.10;;;;;;5035961;28;20191;-69
2022/04/18 06:18:25;;;;;;;2.47;2.28;;;21.70;34.90;;;;;;5036002;28;20231;-69
2022/04/18 06:20:54;;;;;;;2.30;2.20;;;21.80;34.70;;;;;;5036773;28;20195;-69
2022/04/18 06:23:21;;;;;;;2.25;2.13;;;22.00;34.60;;;;;;5035964;28;20218;-69
2022/04/18 06:25:55;;;;;;;2.40;2.20;;;22.10;34.40;;;;;;5036059;28;20207;-69
2022/04/18 06:28:23;;;;;;;2.70;2.50;;;22.30;34.50;;;;;;5035753;28;20211;-69
2022/04/18 06:30:51;;;;;;;2.35;2.25;;;22.40;34.20;;;;;;5052370;28;20199;-69
2022/04/18 06:33:34;;;;;;;5.57;2.30;;;22.50;34.10;;;;;;5036616;28;20207;-69
2022/04/18 06:36:03;;;;;;;2.63;2.45;;;22.60;33.90;;;;;;5052743;28;20203;-69
2022/04/18 06:38:33;;;;;;;2.20;2.10;;;22.70;33.90;;;;;;5036127;28;20195;-69
2022/04/18 06:41:03;;;;;;;2.58;2.20;;;22.80;33.70;;;;;;5037578;28;20191;-69
2022/04/18 06:43:34;;;;;;;2.60;2.40;;;22.90;33.50;;;;;;5057025;28;20596;-69
2022/04/18 06:46:06;;;;;;;2.60;2.40;;;23.10;33.40;;;;;;5039817;28;20222;-67
2022/04/18 06:48:35;;;;;;;2.35;2.20;;;23.20;33.30;;;;;;5057376;28;20266;-67
2022/04/18 06:51:34;;;;;;;2.22;2.13;;;23.20;33.00;;;;;;5057698;28;20195;-67
2022/04/18 06:54:30;;;;;;;2.30;2.20;;;23.40;33.10;;;;;;5057522;28;20199;-67
2022/04/18 06:57:05;;;;;;;2.40;2.20;;;23.50;32.80;;;;;;5039400;28;20603;-67
2022/04/18 06:59:38;;;;;;;2.78;2.10;;;23.60;32.80;;;;;;5040019;28;20203;-67
2022/04/18 07:02:06;;;;;;;2.03;1.92;;;23.70;32.70;;;;;;5056791;28;20203;-67
2022/04/18 07:04:35;;;;;;;2.40;2.20;;;23.70;32.50;;;;;;5039119;28;20230;-67
2022/04/18 07:07:02;;;;;;;2.00;1.90;;;23.80;32.40;;;;;;5038939;28;20225;-66
2022/04/18 07:09:30;;;;;;;2.15;1.98;;;23.90;32.40;;;;;;5038843;28;20692;-68
2022/04/18 07:12:03;;;;;;;2.38;1.95;;;24.00;32.20;;;;;;5039422;28;20191;-69
2022/04/18 07:14:31;;;;;;;2.53;2.33;;;24.10;32.20;;;;;;5039485;28;20199;-68
2022/04/18 07:17:00;;;;;;;2.40;2.20;;;24.20;32.70;;;;;;5039150;28;20230;-68
2022/04/18 07:19:28;;;;;;;2.33;2.05;;;24.20;32.00;;;;;;5055251;28;20719;-68
2022/04/18 07:21:58;;;;;;;2.35;2.22;;;24.30;31.80;;;;;;5038946;28;20204;-68
2022/04/18 07:24:25;;;;;;;2.25;2.15;;;24.30;32.30;;;;;;5039194;28;20231;-68
2022/04/18 07:27:00;;;;;;;1.80;1.70;;;24.40;31.50;;;;;;5038439;28;20215;-68
2022/04/18 07:29:29;;;;;;;2.00;1.90;;;24.50;31.50;;;;;;5038895;28;20188;-68
2022/04/18 07:31:56;;;;;;;2.10;2.00;;;24.50;31.40;;;;;;5038347;28;20195;-68
2022/04/18 07:34:23;;;;;;;2.00;1.90;;;24.60;31.20;;;;;;5038141;28;20265;-70
2022/04/18 07:36:51;;;;;;;2.00;1.90;;;24.70;31.00;;;;;;5038082;28;20302;-67
2022/04/18 07:39:19;;;;;;;1.90;1.80;;;24.70;31.00;;;;;;5056127;28;20184;-68
2022/04/18 07:41:52;;;;;;;1.83;1.73;;;24.80;31.10;;;;;;5038235;28;20658;-68
2022/04/18 07:44:23;;;;;;;1.77;1.67;;;24.90;31.10;;;;;;5038344;28;20203;-68
2022/04/18 07:46:50;;;;;;;1.88;1.77;;;24.90;30.90;;;;;;5038214;28;20211;-69
2022/04/18 07:49:25;;;;;;;1.85;1.75;;;25.00;30.90;;;;;;5054503;28;20257;-68
2022/04/18 07:51:54;;;;;;;1.83;1.73;;;25.10;30.70;;;;;;5054016;28;20195;-68
2022/04/18 07:54:40;;;;;;;1.75;1.65;;;25.20;30.60;;;;;;5054538;28;20305;-69
2022/04/18 07:57:09;;;;;;;2.00;1.90;;;25.20;30.50;;;;;;5038236;28;20226;-68
2022/04/18 07:59:47;;;;;;;1.90;1.80;;;25.30;30.40;;;;;;5038132;28;20274;-68
2022/04/18 08:02:15;;;;;;;2.00;1.90;;;25.40;30.30;;;;;;5038227;28;20195;-68
2022/04/18 08:05:00;;;;;;;1.80;1.70;;;25.50;30.20;;;;;;5056255;28;20182;-68
2022/04/18 08:07:54;;;;;;;1.80;1.70;;;25.50;30.10;;;;;;5051702;28;20219;-68
2022/04/18 08:10:22;;;;;;;1.80;1.70;;;25.60;30.00;;;;;;5037692;28;20756;-69
2022/04/18 08:12:50;;;;;;;1.90;1.70;;;25.60;30.00;;;;;;5037671;28;20199;-68
2022/04/18 08:15:35;;;;;;;1.90;1.80;;;25.70;29.90;;;;;;5055523;28;20176;-68
2022/04/18 08:18:05;;;;;;;2.03;1.90;;;25.70;29.80;;;;;;5054028;28;20234;-68
2022/04/18 08:20:58;;;;;;;1.80;1.70;;;25.80;29.70;;;;;;5054145;28;20204;-69
2022/04/18 08:23:25;;;;;;;1.90;1.80;;;25.80;29.60;;;;;;5053768;28;20199;-68
2022/04/18 08:26:12;;;;;;;2.60;2.00;;;25.90;29.60;;;;;;5146688;22;20392;-68
2022/04/18 08:28:51;;;;;;;2.13;2.00;;;25.90;27.60;;;;;;5054402;28;20280;-68
2022/04/18 08:31:20;;;;;;;3.28;2.80;;;25.90;26.90;;;;;;5037273;28;20286;-68
2022/04/18 08:34:04;;;;;;;3.75;3.00;;;25.90;26.40;;;;;;5038667;28;20183;-69
2022/04/18 08:36:32;;;;;;;2.80;2.60;;;25.90;25.90;;;;;;5054125;28;20219;-69
2022/04/18 08:41:50;;;;;;;3.20;2.90;;;26.00;25.20;;;;;;4997615;28;20219;-69
2022/04/18 08:44:23;;;;;;;4.43;3.13;;;26.00;25.30;;;;;;4998500;28;20196;-70
2022/04/18 08:46:52;;;;;;;5.95;2.67;;;26.00;25.50;;;;;;4998271;28;20220;-68
2022/04/18 08:54:57;;;;;;;4.75;2.90;;;25.90;24.90;;;;;;5013887;28;20193;-68
2022/04/18 08:57:25;;;;;;;3.45;3.15;;;25.90;24.90;;;;;;4997968;28;20216;-69
2022/04/18 08:59:53;;;;;;;3.85;3.13;;;25.90;24.90;;;;;;4997630;28;20629;-69
2022/04/18 09:02:20;;;;;;;3.67;3.08;;;26.00;24.80;;;;;;4997617;28;20292;-69
2022/04/18 09:05:10;;;;;;;5.13;2.80;;;26.00;24.90;;;;;;5032980;28;20363;-69
2022/04/18 09:07:37;;;;;;;4.43;3.03;;;26.00;25.50;;;;;;5155443;22;20596;-70
2022/04/18 09:10:05;;;;;;;3.42;3.13;;;26.00;24.40;;;;;;5036945;28;20203;-69
2022/04/18 09:12:33;;;;;;;3.42;2.67;;;26.00;24.80;;;;;;5036871;28;20294;-68
2022/04/18 09:15:30;;;;;;;3.55;2.78;;;26.00;24.90;;;;;;5055376;28;20201;-69
2022/04/18 09:18:07;;;;;;;3.42;2.70;;;26.10;24.60;;;;;;5036902;28;20207;-69
2022/04/18 09:20:42;;;;;;;3.03;2.72;;;26.10;24.10;;;;;;5037343;28;20222;-70
2022/04/18 09:23:20;;;;;;;2.90;2.60;;;26.10;24.50;;;;;;5036963;28;20191;-70
2022/04/18 09:26:00;;;;;;;2.55;2.35;;;26.10;24.40;;;;;;5037256;28;20292;-69
2022/04/18 09:28:30;;;;;;;2.67;2.47;;;26.10;24.10;;;;;;5037197;28;20277;-69
2022/04/18 09:31:01;;;;;;;4.00;2.70;;;26.00;23.90;;;;;;5036406;28;20222;-69
2022/04/18 09:33:31;;;;;;;4.03;2.55;;;26.00;24.00;;;;;;5036521;28;20195;-69
2022/04/18 09:36:09;;;;;;;3.95;2.60;;;26.10;24.10;;;;;;5054513;28;20233;-69
2022/04/18 09:38:38;;;;;;;7.22;3.38;;;26.00;24.00;;;;;;5036391;28;20276;-69
2022/04/18 09:41:15;;;;;;;2.95;2.60;;;26.00;23.80;;;;;;5055220;28;20188;-69
2022/04/18 09:43:45;;;;;;;2.63;2.42;;;26.00;24.00;;;;;;5036510;28;20199;-69
2022/04/18 09:46:15;;;;;;;3.08;2.78;;;26.00;24.00;;;;;;5036523;28;20273;-69
2022/04/18 09:48:52;;;;;;;2.70;2.50;;;26.00;24.00;;;;;;5036862;28;20325;-69
2022/04/18 09:51:24;;;;;;;3.30;2.70;;;26.00;24.00;;;;;;5037232;28;20199;-69
2022/04/18 09:54:07;;;;;;;2.88;2.65;;;25.90;23.90;;;;;;5036388;28;20191;-69
2022/04/18 09:56:34;;;;;;;2.85;2.55;;;26.00;24.00;;;;;;5052995;28;20223;-69
2022/04/18 09:59:02;;;;;;;3.45;2.40;;;25.90;24.10;;;;;;5036641;28;20191;-69
2022/04/18 10:01:30;;;;;;;2.92;2.72;;;25.90;24.30;;;;;;5036954;28;20203;-69
2022/04/18 10:03:57;;;;;;;2.70;2.50;;;25.90;24.10;;;;;;5036852;28;20199;-69
2022/04/18 10:06:24;;;;;;;2.78;2.58;;;25.80;24.10;;;;;;5060160;28;20215;-68
2022/04/18 10:08:52;;;;;;;3.72;2.42;;;25.80;24.10;;;;;;5055881;28;20245;-69
2022/04/18 10:11:19;;;;;;;2.67;2.30;;;25.70;24.30;;;;;;5054852;28;20313;-69
2022/04/18 10:13:46;;;;;;;2.53;2.33;;;25.70;24.40;;;;;;5053109;28;20195;-69
2022/04/18 10:16:15;;;;;;;2.78;2.58;;;25.60;24.40;;;;;;5054264;28;20203;-68
2022/04/18 10:18:44;;;;;;;3.35;2.47;;;25.60;24.00;;;;;;5052927;28;20668;-68
2022/04/18 10:21:26;;;;;;;2.80;2.58;;;25.60;24.10;;;;;;5036885;28;20675;-68
2022/04/18 10:24:03;;;;;;;2.90;2.25;;;25.60;24.10;;;;;;5043201;28;20193;-69
2022/04/18 10:26:51;;;;;;;2.50;2.30;;;25.50;24.20;;;;;;5054717;28;20215;-69
2022/04/18 10:29:20;;;;;;;2.65;2.45;;;25.40;24.40;;;;;;5071377;28;20225;-69
2022/04/18 10:31:48;;;;;;;3.38;2.58;;;25.40;24.70;;;;;;5037936;28;20199;-69
2022/04/18 10:34:16;;;;;;;2.92;2.55;;;25.40;24.70;;;;;;5054227;28;20195;-69
2022/04/18 10:36:46;;;;;;;2.50;2.30;;;25.40;24.70;;;;;;5036161;28;20219;-69
2022/04/18 10:41:57;;;;;;;2.58;2.38;;;25.30;24.80;;;;;;5063815;22;20231;-68
2022/04/18 10:44:28;;;;;;;2.50;2.30;;;25.30;24.90;;;;;;5053812;28;20187;-69
2022/04/18 10:47:05;;;;;;;2.45;2.25;;;25.20;24.80;;;;;;5052853;28;20222;-68
2022/04/18 10:49:33;;;;;;;2.70;2.50;;;25.10;24.70;;;;;;5035340;28;20210;-68
2022/04/18 10:52:08;;;;;;;3.17;2.35;;;25.10;24.70;;;;;;5052885;28;20187;-68
2022/04/18 10:57:27;;;;;;;2.78;2.53;;;24.90;24.90;;;;;;5031818;28;20222;-68
2022/04/18 10:59:55;;;;;;;2.97;2.45;;;24.90;24.60;;;;;;5015297;28;20196;-69
2022/04/18 11:02:38;;;;;;;2.85;2.50;;;24.80;24.50;;;;;;5015469;28;20207;-69
2022/04/18 11:05:06;;;;;;;3.85;2.83;;;24.70;24.80;;;;;;5015497;28;20196;-70
2022/04/18 11:07:38;;;;;;;2.65;2.45;;;24.70;24.80;;;;;;5015434;28;20231;-70
2022/04/18 11:10:18;;;;;;;2.60;2.40;;;24.70;24.80;;;;;;5033191;28;20234;-69
2022/04/18 11:12:45;;;;;;;3.55;2.85;;;24.60;25.10;;;;;;5015359;28;20195;-68
2022/04/18 11:15:12;;;;;;;2.90;2.53;;;24.50;24.70;;;;;;5033004;28;20602;-68
2022/04/18 11:20:32;;;;;;;2.58;2.38;;;24.40;25.10;;;;;;5051254;28;20304;-68
2022/04/18 11:23:27;;;;;;;2.60;2.40;;;24.40;25.40;;;;;;5051555;28;20198;-67
2022/04/18 11:25:58;;;;;;;2.40;2.20;;;24.30;25.70;;;;;;5006199;28;20561;-67
2022/04/18 11:28:31;;;;;;;3.28;2.45;;;24.40;25.70;;;;;;5055352;28;20202;-68
2022/04/18 11:30:59;;;;;;;2.63;2.42;;;24.30;25.70;;;;;;5055326;28;20237;-67
2022/04/18 11:33:26;;;;;;;2.63;2.42;;;24.30;25.80;;;;;;5055384;28;20202;-68
2022/04/18 11:36:01;;;;;;;2.70;2.47;;;24.30;25.70;;;;;;5055103;28;20203;-68
2022/04/18 11:38:29;;;;;;;2.83;2.22;;;24.20;25.60;;;;;;5056141;28;20656;-67
2022/04/18 11:40:56;;;;;;;2.65;2.30;;;24.20;25.90;;;;;;5055615;28;20209;-67
2022/04/18 11:43:23;;;;;;;3.83;2.40;;;24.20;26.10;;;;;;5055467;28;20245;-68
2022/04/18 11:45:50;;;;;;;2.40;2.20;;;24.20;26.10;;;;;;5055347;28;20269;-68
2022/04/18 11:48:21;;;;;;;2.20;2.00;;;24.20;26.50;;;;;;5056540;28;20195;-68
2022/04/18 11:50:48;;;;;;;2.20;2.00;;;24.20;26.60;;;;;;5057157;28;20227;-69
2022/04/18 11:53:17;;;;;;;2.50;2.30;;;24.20;26.60;;;;;;5056727;28;20286;-68
2022/04/18 11:55:44;;;;;;;2.42;2.22;;;24.20;26.70;;;;;;5055112;28;20196;-68
2022/04/18 11:58:11;;;;;;;3.67;3.13;;;24.20;26.40;;;;;;5055729;28;20215;-69
2022/04/18 12:09:05;;;;;;;4.45;3.03;;;23.80;24.40;;;;;;5055572;28;20215;-68
2022/04/18 12:11:34;;;;;;;3.15;2.70;;;23.70;24.30;;;;;;5055343;28;20195;-69
2022/04/18 12:14:01;;;;;;;3.30;3.00;;;23.60;24.30;;;;;;5055252;28;20196;-68
2022/04/18 12:16:28;;;;;;;4.38;3.50;;;23.60;24.30;;;;;;5129212;22;20261;-68
2022/04/18 12:18:55;;;;;;;3.28;2.97;;;23.50;24.20;;;;;;5057461;28;20295;-69
2022/04/18 12:21:24;;;;;;;3.70;3.40;;;23.50;24.80;;;;;;5054435;28;20199;-69
2022/04/18 12:23:54;;;;;;;3.72;3.10;;;23.40;23.80;;;;;;5055469;28;20207;-70
2022/04/18 12:29:27;;;;;;;2.67;2.47;;;23.50;25.60;;;;;;5365815;22;20326;-68
2022/04/18 12:31:59;;;;;;;2.70;2.50;;;23.50;25.40;;;;;;5274204;22;20292;-68
2022/04/18 12:34:26;;;;;;;2.50;2.30;;;23.60;25.70;;;;;;5189843;22;20189;-67
2022/04/18 12:36:56;;;;;;;2.55;2.35;;;23.60;26.00;;;;;;5190786;22;20237;-70
2022/04/18 12:39:25;;;;;;;2.95;2.33;;;23.70;26.40;;;;;;5054882;28;20270;-69
2022/04/18 12:42:02;;;;;;;2.72;2.50;;;23.70;26.50;;;;;;5213494;22;20276;-70
2022/04/18 12:44:28;;;;;;;2.28;2.08;;;23.70;26.70;;;;;;5037329;28;20282;-70
2022/04/18 12:46:55;;;;;;;2.78;2.30;;;23.80;27.00;;;;;;5167607;22;20215;-69
2022/04/18 12:49:22;;;;;;;2.50;2.30;;;23.80;27.10;;;;;;5037953;28;20218;-69
2022/04/18 12:52:08;;;;;;;2.40;2.20;;;23.80;27.30;;;;;;5275862;22;20285;-70
2022/04/18 12:59:48;;;;;;;2.53;2.28;;;23.90;27.90;;;;;;5203408;22;20321;-69
2022/04/18 13:02:15;;;;;;;2.22;2.03;;;23.90;28.10;;;;;;5189808;22;20270;-70
2022/04/18 13:04:53;;;;;;;2.60;2.15;;;23.90;28.50;;;;;;5304248;22;20314;-67
2022/04/18 13:07:20;;;;;;;2.15;1.92;;;23.90;28.80;;;;;;5326098;22;20559;-69
2022/04/18 13:09:47;;;;;;;2.30;2.00;;;23.80;28.40;;;;;;5137534;22;20694;-61
2022/04/18 13:12:14;;;;;;;2.20;2.00;;;23.80;28.80;;;;;;5259804;22;20216;-69
2022/04/18 13:20:19;;;;;;;2.33;2.13;;;23.80;29.20;;;;;;5321712;22;20226;-69
2022/04/18 13:22:46;;;;;;;2.10;1.90;;;23.80;29.30;;;;;;5053518;28;20205;-69
2022/04/18 13:25:13;;;;;;;2.40;2.10;;;23.80;29.20;;;;;;5064215;28;20214;-70
2022/04/18 13:27:41;;;;;;;3.50;2.10;;;23.80;29.20;;;;;;5053511;28;20201;-71
2022/04/18 13:30:09;;;;;;;2.25;2.08;;;23.80;29.10;;;;;;5053450;28;20234;-71
2022/04/18 13:32:36;;;;;;;2.45;2.10;;;23.90;29.20;;;;;;5071519;28;20193;-71
2022/04/18 13:35:04;;;;;;;2.28;2.10;;;23.90;29.20;;;;;;5053854;28;20569;-71
2022/04/18 13:37:32;;;;;;;2.47;2.28;;;23.90;29.20;;;;;;5053615;28;20225;-71
2022/04/18 13:39:59;;;;;;;2.10;1.90;;;23.90;29.20;;;;;;5053236;28;20195;-71
2022/04/18 13:42:26;;;;;;;2.28;2.08;;;23.80;29.20;;;;;;5053371;28;20653;-70
2022/04/18 13:44:53;;;;;;;2.72;2.10;;;23.90;29.30;;;;;;5071713;28;20221;-71
2022/04/18 13:47:20;;;;;;;2.20;2.10;;;23.80;29.10;;;;;;5071467;28;20194;-71
2022/04/18 13:49:48;;;;;;;2.85;2.15;;;23.80;29.10;;;;;;5053241;28;20199;-71
2022/04/18 13:52:15;;;;;;;2.92;1.98;;;23.80;29.10;;;;;;5053093;28;20207;-70
2022/04/18 13:54:43;;;;;;;2.05;1.95;;;23.80;29.10;;;;;;5069449;28;20222;-71
2022/04/18 13:57:11;;;;;;;3.03;1.90;;;23.70;29.80;;;;;;5053045;28;20288;-71